sensor_id;sensor_type;location;lat;lon;timestamp;pressure;altitude;pressure_sealevel;temperature;humidity
44974;BME280;60981;50.720;11.342;2023-02-11T00:00:05;57367.47;;;-144.53;100.00
44974;BME280;60981;50.720;11.342;2023-02-11T00:01:10;57367.47;;;-144.53;100.00
44974;BME280;60981;50.720;11.342;2023-02-11T00:02:12;57367.47;;;-144.53;100.00
44974;BME280;60981;50.720;11.342;2023-02-11T00:03:14;57367.47;;;-144.53;100.00
44974;BME280;60981;50.720;11.342;2023-02-11T00:04:16;57367.47;;;-144.53;100.00
44974;BME280;60981;50.720;11.342;2023-02-11T00:05:18;57367.47;;;-144.53;100.00
44974;BME280;60981;50.720;11.342;2023-02-11T00:06:20;57367.47;;;-144.53;100.00
44974;BME280;60981;50.720;11.342;2023-02-11T00:07:22;57367.47;;;-144.53;100.00
44974;BME280;60981;50.720;11.342;2023-02-11T00:08:24;57367.47;;;-144.53;100.00
44974;BME280;60981;50.720;11.342;2023-02-11T00:09:26;57367.47;;;-144.53;100.00
44974;BME280;60981;50.720;11.342;2023-02-11T00:10:30;57367.47;;;-144.53;100.00
44974;BME280;60981;50.720;11.342;2023-02-11T00:11:32;57367.47;;;-144.53;100.00
44974;BME280;60981;50.720;11.342;2023-02-11T00:12:36;57367.47;;;-144.53;100.00
44974;BME280;60981;50.720;11.342;2023-02-11T00:13:37;57367.47;;;-144.53;100.00
44974;BME280;60981;50.720;11.342;2023-02-11T00:14:39;57367.47;;;-144.53;100.00
44974;BME280;60981;50.720;11.342;2023-02-11T00:15:41;57367.47;;;-144.53;100.00
44974;BME280;60981;50.720;11.342;2023-02-11T00:16:42;57367.47;;;-144.53;100.00
44974;BME280;60981;50.720;11.342;2023-02-11T00:17:44;57367.47;;;-144.53;100.00
44974;BME280;60981;50.720;11.342;2023-02-11T00:18:46;57367.47;;;-144.53;100.00
44974;BME280;60981;50.720;11.342;2023-02-11T00:19:49;57367.47;;;-144.53;100.00
44974;BME280;60981;50.720;11.342;2023-02-11T00:20:51;57367.47;;;-144.53;100.00
44974;BME280;60981;50.720;11.342;2023-02-11T00:21:53;57367.47;;;-144.53;100.00
44974;BME280;60981;50.720;11.342;2023-02-11T00:22:54;57367.47;;;-144.53;100.00
44974;BME280;60981;50.720;11.342;2023-02-11T00:23:57;57367.47;;;-144.53;100.00
44974;BME280;60981;50.720;11.342;2023-02-11T00:25:00;57367.47;;;-144.53;100.00
44974;BME280;60981;50.720;11.342;2023-02-11T00:26:02;57367.47;;;-144.53;100.00
44974;BME280;60981;50.720;11.342;2023-02-11T00:27:04;57367.47;;;-144.53;100.00
44974;BME280;60981;50.720;11.342;2023-02-11T00:28:06;57367.47;;;-144.53;100.00
44974;BME280;60981;50.720;11.342;2023-02-11T00:29:11;57367.47;;;-144.53;100.00
44974;BME280;60981;50.720;11.342;2023-02-11T00:30:16;57367.47;;;-144.53;100.00
44974;BME280;60981;50.720;11.342;2023-02-11T00:31:22;57367.47;;;-144.53;100.00
44974;BME280;60981;50.720;11.342;2023-02-11T00:32:25;57367.47;;;-144.53;100.00
44974;BME280;60981;50.720;11.342;2023-02-11T00:33:27;57367.47;;;-144.53;100.00
44974;BME280;60981;50.720;11.342;2023-02-11T00:34:32;57367.47;;;-144.53;100.00
44974;BME280;60981;50.720;11.342;2023-02-11T00:35:36;57367.47;;;-144.53;100.00
44974;BME280;60981;50.720;11.342;2023-02-11T00:36:39;57367.47;;;-144.53;100.00
44974;BME280;60981;50.720;11.342;2023-02-11T00:37:42;57367.47;;;-144.53;100.00
44974;BME280;60981;50.720;11.342;2023-02-11T00:38:44;57367.47;;;-144.53;100.00
44974;BME280;60981;50.720;11.342;2023-02-11T00:39:46;57367.47;;;-144.53;100.00
44974;BME280;60981;50.720;11.342;2023-02-11T00:40:50;57367.47;;;-144.53;100.00
44974;BME280;60981;50.720;11.342;2023-02-11T00:41:52;57367.47;;;-144.53;100.00
44974;BME280;60981;50.720;11.342;2023-02-11T00:42:56;57367.47;;;-144.53;100.00
44974;BME280;60981;50.720;11.342;2023-02-11T00:43:59;57367.47;;;-144.53;100.00
44974;BME280;60981;50.720;11.342;2023-02-11T00:45:02;57367.47;;;-144.53;100.00
44974;BME280;60981;50.720;11.342;2023-02-11T00:46:05;57367.47;;;-144.53;100.00
44974;BME280;60981;50.720;11.342;2023-02-11T00:47:06;57367.47;;;-144.53;100.00
44974;BME280;60981;50.720;11.342;2023-02-11T00:48:08;57367.47;;;-144.53;100.00
44974;BME280;60981;50.720;11.342;2023-02-11T00:49:10;57367.47;;;-144.53;100.00
44974;BME280;60981;50.720;11.342;2023-02-11T00:50:12;57367.47;;;-144.53;100.00
44974;BME280;60981;50.720;11.342;2023-02-11T00:51:14;57367.47;;;-144.53;100.00
44974;BME280;60981;50.720;11.342;2023-02-11T00:52:15;57367.47;;;-144.53;100.00
44974;BME280;60981;50.720;11.342;2023-02-11T00:53:21;57367.47;;;-144.53;100.00
44974;BME280;60981;50.720;11.342;2023-02-11T00:54:23;57367.47;;;-144.53;100.00
44974;BME280;60981;50.720;11.342;2023-02-11T00:55:25;57367.47;;;-144.53;100.00
44974;BME280;60981;50.720;11.342;2023-02-11T00:56:26;57367.47;;;-144.53;100.00
44974;BME280;60981;50.720;11.342;2023-02-11T00:57:29;57367.47;;;-144.53;100.00
44974;BME280;60981;50.720;11.342;2023-02-11T00:58:31;57367.47;;;-144.53;100.00
44974;BME280;60981;50.720;11.342;2023-02-11T00:59:34;57367.47;;;-144.53;100.00
44974;BME280;60981;50.720;11.342;2023-02-11T01:00:36;57367.47;;;-144.53;100.00
44974;BME280;60981;50.720;11.342;2023-02-11T01:01:37;57367.47;;;-144.53;100.00
44974;BME280;60981;50.720;11.342;2023-02-11T01:02:40;57367.47;;;-144.53;100.00
44974;BME280;60981;50.720;11.342;2023-02-11T01:03:42;57367.47;;;-144.53;100.00
44974;BME280;60981;50.720;11.342;2023-02-11T01:04:43;57367.47;;;-144.53;100.00
44974;BME280;60981;50.720;11.342;2023-02-11T01:05:45;57367.47;;;-144.53;100.00
44974;BME280;60981;50.720;11.342;2023-02-11T01:06:47;57367.47;;;-144.53;100.00
44974;BME280;60981;50.720;11.342;2023-02-11T01:07:48;57367.47;;;-144.53;100.00
44974;BME280;60981;50.720;11.342;2023-02-11T01:08:50;57367.47;;;-144.53;100.00
44974;BME280;60981;50.720;11.342;2023-02-11T01:09:52;57367.47;;;-144.53;100.00
44974;BME280;60981;50.720;11.342;2023-02-11T01:10:58;57367.47;;;-144.53;100.00
44974;BME280;60981;50.720;11.342;2023-02-11T01:12:00;57367.47;;;-144.53;100.00
44974;BME280;60981;50.720;11.342;2023-02-11T01:13:04;57367.47;;;-144.53;100.00
44974;BME280;60981;50.720;11.342;2023-02-11T01:14:07;57367.47;;;-144.53;100.00
44974;BME280;60981;50.720;11.342;2023-02-11T01:15:13;57367.47;;;-144.53;100.00
44974;BME280;60981;50.720;11.342;2023-02-11T01:16:15;57367.47;;;-144.53;100.00
44974;BME280;60981;50.720;11.342;2023-02-11T01:17:17;57367.47;;;-144.53;100.00
44974;BME280;60981;50.720;11.342;2023-02-11T01:18:19;57367.47;;;-144.53;100.00
44974;BME280;60981;50.720;11.342;2023-02-11T01:19:21;57367.47;;;-144.53;100.00
44974;BME280;60981;50.720;11.342;2023-02-11T01:20:25;57367.47;;;-144.53;100.00
44974;BME280;60981;50.720;11.342;2023-02-11T01:21:28;57367.47;;;-144.53;100.00
44974;BME280;60981;50.720;11.342;2023-02-11T01:22:30;57367.47;;;-144.53;100.00
44974;BME280;60981;50.720;11.342;2023-02-11T01:23:32;57367.47;;;-144.53;100.00
44974;BME280;60981;50.720;11.342;2023-02-11T01:24:37;57367.47;;;-144.53;100.00
44974;BME280;60981;50.720;11.342;2023-02-11T01:25:39;57367.47;;;-144.53;100.00
44974;BME280;60981;50.720;11.342;2023-02-11T01:26:42;57367.47;;;-144.53;100.00
44974;BME280;60981;50.720;11.342;2023-02-11T01:27:44;57367.47;;;-144.53;100.00
44974;BME280;60981;50.720;11.342;2023-02-11T01:28:46;57367.47;;;-144.53;100.00
44974;BME280;60981;50.720;11.342;2023-02-11T01:29:47;101176.69;;;3.66;93.75
44974;BME280;60981;50.720;11.342;2023-02-11T01:30:50;57367.47;;;-144.53;100.00
44974;BME280;60981;50.720;11.342;2023-02-11T01:31:52;101175.28;;;3.71;93.09
44974;BME280;60981;50.720;11.342;2023-02-11T01:32:53;57367.47;;;-144.53;100.00
44974;BME280;60981;50.720;11.342;2023-02-11T01:33:55;57367.47;;;-144.53;100.00
44974;BME280;60981;50.720;11.342;2023-02-11T01:34:57;101182.81;;;3.70;93.30
44974;BME280;60981;50.720;11.342;2023-02-11T01:36:00;101178.59;;;3.70;93.25
44974;BME280;60981;50.720;11.342;2023-02-11T01:37:03;101178.59;;;3.70;93.03
44974;BME280;60981;50.720;11.342;2023-02-11T01:38:06;101180.13;;;3.67;92.79
44974;BME280;60981;50.720;11.342;2023-02-11T01:39:08;101171.84;;;3.71;92.74
44974;BME280;60981;50.720;11.342;2023-02-11T01:40:15;101172.63;;;3.70;92.80
44974;BME280;60981;50.720;11.342;2023-02-11T01:41:17;101169.13;;;3.68;92.56
44974;BME280;60981;50.720;11.342;2023-02-11T01:42:21;101174.88;;;3.49;93.48
44974;BME280;60981;50.720;11.342;2023-02-11T01:43:24;101174.88;;;3.49;94.11
44974;BME280;60981;50.720;11.342;2023-02-11T01:44:34;101172.41;;;3.50;94.24
44974;BME280;60981;50.720;11.342;2023-02-11T01:45:51;101179.16;;;3.35;94.98
44974;BME280;60981;50.720;11.342;2023-02-11T01:46:54;101171.44;;;3.34;95.58
44974;BME280;60981;50.720;11.342;2023-02-11T01:47:58;101174.16;;;3.37;95.58
44974;BME280;60981;50.720;11.342;2023-02-11T01:49:05;101177.59;;;3.37;95.73
44974;BME280;60981;50.720;11.342;2023-02-11T01:50:07;101167.06;;;3.31;95.91
44974;BME280;60981;50.720;11.342;2023-02-11T01:51:17;101171.09;;;3.27;96.56
44974;BME280;60981;50.720;11.342;2023-02-11T01:52:33;101169.84;;;3.21;96.89
44974;BME280;60981;50.720;11.342;2023-02-11T01:53:37;101173.56;;;3.11;97.80
44974;BME280;60981;50.720;11.342;2023-02-11T01:54:59;101171.88;;;3.12;97.80
44974;BME280;60981;50.720;11.342;2023-02-11T01:56:24;101168.38;;;3.10;98.27
44974;BME280;60981;50.720;11.342;2023-02-11T01:57:51;101165.84;;;3.10;98.47
44974;BME280;60981;50.720;11.342;2023-02-11T01:59:02;101163.97;;;3.07;98.64
44974;BME280;60981;50.720;11.342;2023-02-11T02:01:15;101167.22;;;3.05;99.26
44974;BME280;60981;50.720;11.342;2023-02-11T02:02:22;101160.44;;;3.05;99.08
44974;BME280;60981;50.720;11.342;2023-02-11T02:03:26;101172.69;;;3.11;98.34
44974;BME280;60981;50.720;11.342;2023-02-11T02:04:38;101173.88;;;3.03;98.65
44974;BME280;60981;50.720;11.342;2023-02-11T02:07:15;101166.50;;;3.07;98.21
44974;BME280;60981;50.720;11.342;2023-02-11T02:08:22;101177.16;;;3.15;97.98
44974;BME280;60981;50.720;11.342;2023-02-11T02:09:28;101173.72;;;3.14;97.58
44974;BME280;60981;50.720;11.342;2023-02-11T02:10:34;101168.25;;;3.08;97.66
44974;BME280;60981;50.720;11.342;2023-02-11T02:11:36;101167.38;;;3.08;97.76
44974;BME280;60981;50.720;11.342;2023-02-11T02:12:39;101176.09;;;3.11;97.65
44974;BME280;60981;50.720;11.342;2023-02-11T02:13:41;101174.84;;;3.05;98.06
44974;BME280;60981;50.720;11.342;2023-02-11T02:14:43;101174.44;;;3.12;97.86
44974;BME280;60981;50.720;11.342;2023-02-11T02:15:49;101167.38;;;3.08;97.85
44974;BME280;60981;50.720;11.342;2023-02-11T02:16:53;101165.84;;;3.10;97.63
44974;BME280;60981;50.720;11.342;2023-02-11T02:18:01;101155.44;;;3.07;98.11
44974;BME280;60981;50.720;11.342;2023-02-11T02:21:27;101153.59;;;3.04;98.52
44974;BME280;60981;50.720;11.342;2023-02-11T02:24:37;101150.03;;;3.00;99.86
44974;BME280;60981;50.720;11.342;2023-02-11T02:27:18;101137.22;;;2.99;100.00
44974;BME280;60981;50.720;11.342;2023-02-11T02:28:53;101128.09;;;3.03;100.00
44974;BME280;60981;50.720;11.342;2023-02-11T02:34:53;101135.31;;;3.10;100.00
44974;BME280;60981;50.720;11.342;2023-02-11T02:37:09;101118.34;;;3.25;100.00
44974;BME280;60981;50.720;11.342;2023-02-11T02:39:11;101125.97;;;3.25;100.00
44974;BME280;60981;50.720;11.342;2023-02-11T02:39:47;57367.47;;;-144.53;100.00
44974;BME280;60981;50.720;11.342;2023-02-11T02:40:55;101122.81;;;3.44;98.63
44974;BME280;60981;50.720;11.342;2023-02-11T02:41:59;101118.94;;;3.50;97.92
44974;BME280;60981;50.720;11.342;2023-02-11T02:43:03;101120.94;;;3.56;97.59
44974;BME280;60981;50.720;11.342;2023-02-11T02:44:06;101119.94;;;3.69;96.78
44974;BME280;60981;50.720;11.342;2023-02-11T02:45:11;101118.13;;;3.66;96.44
44974;BME280;60981;50.720;11.342;2023-02-11T02:46:27;101116.69;;;3.71;95.63
44974;BME280;60981;50.720;11.342;2023-02-11T02:47:29;101121.53;;;3.67;95.80
44974;BME280;60981;50.720;11.342;2023-02-11T02:48:32;101123.44;;;3.71;95.52
44974;BME280;60981;50.720;11.342;2023-02-11T02:49:36;101112.56;;;3.73;95.44
44974;BME280;60981;50.720;11.342;2023-02-11T02:50:37;101115.22;;;3.75;95.01
44974;BME280;60981;50.720;11.342;2023-02-11T02:53:17;101100.59;;;3.72;95.11
44974;BME280;60981;50.720;11.342;2023-02-11T02:56:02;101107.97;;;3.82;94.75
44974;BME280;60981;50.720;11.342;2023-02-11T02:57:28;101107.25;;;3.85;94.16
44974;BME280;60981;50.720;11.342;2023-02-11T02:58:42;101099.94;;;3.75;94.58
44974;BME280;60981;50.720;11.342;2023-02-11T03:01:34;101087.50;;;3.81;94.28
44974;BME280;60981;50.720;11.342;2023-02-11T03:02:57;101073.19;;;3.83;93.71
44974;BME280;60981;50.720;11.342;2023-02-11T03:05:22;101070.47;;;5.03;93.95
44974;BME280;60981;50.720;11.342;2023-02-11T03:06:51;101072.94;;;3.78;93.83
44974;BME280;60981;50.720;11.342;2023-02-11T03:07:59;101072.94;;;3.78;93.83
44974;BME280;60981;50.720;11.342;2023-02-11T03:09:05;57367.47;;;-144.53;100.00
44974;BME280;60981;50.720;11.342;2023-02-11T03:10:19;101066.41;;;3.83;93.73
44974;BME280;60981;50.720;11.342;2023-02-11T03:11:23;101063.88;;;3.83;93.80
44974;BME280;60981;50.720;11.342;2023-02-11T03:12:28;101063.59;;;3.63;94.71
44974;BME280;60981;50.720;11.342;2023-02-11T03:13:33;101065.91;;;3.58;95.45
44974;BME280;60981;50.720;11.342;2023-02-11T03:14:36;101052.97;;;3.55;95.98
44974;BME280;60981;50.720;11.342;2023-02-11T03:15:44;101045.53;;;3.58;95.56
44974;BME280;60981;50.720;11.342;2023-02-11T03:16:49;101053.25;;;3.59;95.65
44974;BME280;60981;50.720;11.342;2023-02-11T03:17:57;101046.84;;;3.51;96.64
44974;BME280;60981;50.720;11.342;2023-02-11T03:19:03;101046.69;;;3.48;96.96
44974;BME280;60981;50.720;11.342;2023-02-11T03:20:09;101048.59;;;3.52;97.10
44974;BME280;60981;50.720;11.342;2023-02-11T03:21:15;101037.38;;;3.49;97.46
44974;BME280;60981;50.720;11.342;2023-02-11T03:22:39;101051.22;;;3.54;97.40
44974;BME280;60981;50.720;11.342;2023-02-11T03:23:55;101042.44;;;3.64;96.93
44974;BME280;60981;50.720;11.342;2023-02-11T03:24:59;101042.44;;;21.47;96.93
44974;BME280;60981;50.720;11.342;2023-02-11T03:26:09;43790.22;;;8.84;96.93
44974;BME280;60981;50.720;11.342;2023-02-11T03:27:25;101068.28;;;3.71;96.42
44974;BME280;60981;50.720;11.342;2023-02-11T03:29:09;101074.22;;;3.55;97.16
44974;BME280;60981;50.720;11.342;2023-02-11T03:30:28;101078.03;;;3.47;97.56
44974;BME280;60981;50.720;11.342;2023-02-11T03:31:58;127916.78;;;-143.23;97.56
44974;BME280;60981;50.720;11.342;2023-02-11T03:33:18;101078.03;;;3.47;97.56
44974;BME280;60981;50.720;11.342;2023-02-11T03:34:41;101078.03;;;3.47;97.56
44974;BME280;60981;50.720;11.342;2023-02-11T03:35:55;101045.28;;;3.70;95.61
44974;BME280;60981;50.720;11.342;2023-02-11T03:37:04;101044.09;;;3.63;95.49
44974;BME280;60981;50.720;11.342;2023-02-11T03:38:13;101048.09;;;3.74;95.68
44974;BME280;60981;50.720;11.342;2023-02-11T03:39:21;101043.63;;;3.70;95.62
44974;BME280;60981;50.720;11.342;2023-02-11T03:40:32;101039.88;;;3.64;95.91
44974;BME280;60981;50.720;11.342;2023-02-11T03:41:37;101033.91;;;3.63;96.22
44974;BME280;60981;50.720;11.342;2023-02-11T03:42:43;101033.91;;;3.63;96.22
44974;BME280;60981;50.720;11.342;2023-02-11T03:43:52;101030.13;;;3.56;97.06
44974;BME280;60981;50.720;11.342;2023-02-11T03:44:59;101017.41;;;3.56;96.85
44974;BME280;60981;50.720;11.342;2023-02-11T03:46:05;101020.94;;;3.58;96.69
44974;BME280;60981;50.720;11.342;2023-02-11T03:47:09;101014.41;;;3.64;96.40
44974;BME280;60981;50.720;11.342;2023-02-11T03:48:24;101011.53;;;3.57;96.39
44974;BME280;60981;50.720;11.342;2023-02-11T03:49:27;101005.03;;;3.63;96.13
44974;BME280;60981;50.720;11.342;2023-02-11T03:50:31;100998.97;;;3.60;96.24
44974;BME280;60981;50.720;11.342;2023-02-11T03:51:36;100993.00;;;3.60;96.40
44974;BME280;60981;50.720;11.342;2023-02-11T03:52:39;100988.78;;;3.60;96.37
44974;BME280;60981;50.720;11.342;2023-02-11T03:53:43;100986.84;;;3.56;96.54
44974;BME280;60981;50.720;11.342;2023-02-11T03:54:50;100998.56;;;3.53;96.92
44974;BME280;60981;50.720;11.342;2023-02-11T03:55:55;101006.19;;;3.53;97.42
44974;BME280;60981;50.720;11.342;2023-02-11T03:57:01;101006.09;;;3.51;97.61
44974;BME280;60981;50.720;11.342;2023-02-11T03:58:03;101021.25;;;3.65;97.03
44974;BME280;60981;50.720;11.342;2023-02-11T03:59:06;101018.06;;;3.69;96.19
44974;BME280;60981;50.720;11.342;2023-02-11T04:00:09;101018.88;;;3.68;95.76
44974;BME280;60981;50.720;11.342;2023-02-11T04:01:11;101024.53;;;3.78;95.25
44974;BME280;60981;50.720;11.342;2023-02-11T04:02:13;101022.94;;;3.80;94.90
44974;BME280;60981;50.720;11.342;2023-02-11T04:03:15;101025.56;;;3.82;94.91
44974;BME280;60981;50.720;11.342;2023-02-11T04:04:17;101019.59;;;3.81;94.63
44974;BME280;60981;50.720;11.342;2023-02-11T04:05:19;101034.34;;;3.87;94.43
44974;BME280;60981;50.720;11.342;2023-02-11T04:06:21;101030.31;;;3.90;93.98
44974;BME280;60981;50.720;11.342;2023-02-11T04:07:22;101022.09;;;3.96;93.84
44974;BME280;60981;50.720;11.342;2023-02-11T04:08:24;101013.97;;;4.03;93.19
44974;BME280;60981;50.720;11.342;2023-02-11T04:09:26;101006.72;;;4.11;92.88
44974;BME280;60981;50.720;11.342;2023-02-11T04:10:28;94699.88;;;-143.23;100.00
44974;BME280;60981;50.720;11.342;2023-02-11T04:11:29;101014.22;;;4.08;92.14
44974;BME280;60981;50.720;11.342;2023-02-11T04:12:31;101012.03;;;4.15;91.87
44974;BME280;60981;50.720;11.342;2023-02-11T04:13:35;101017.38;;;4.20;91.82
44974;BME280;60981;50.720;11.342;2023-02-11T04:14:36;101018.44;;;4.24;91.36
44974;BME280;60981;50.720;11.342;2023-02-11T04:15:38;101006.84;;;4.30;90.91
44974;BME280;60981;50.720;11.342;2023-02-11T04:16:40;101004.16;;;4.27;90.52
44974;BME280;60981;50.720;11.342;2023-02-11T04:17:42;101005.97;;;4.30;90.07
44974;BME280;60981;50.720;11.342;2023-02-11T04:18:45;101004.22;;;4.29;90.23
44974;BME280;60981;50.720;11.342;2023-02-11T04:19:46;101011.81;;;4.27;90.09
44974;BME280;60981;50.720;11.342;2023-02-11T04:20:49;101016.03;;;4.27;90.28
44974;BME280;60981;50.720;11.342;2023-02-11T04:21:50;101004.38;;;4.32;89.98
44974;BME280;60981;50.720;11.342;2023-02-11T04:22:52;101015.94;;;4.41;89.59
44974;BME280;60981;50.720;11.342;2023-02-11T04:23:54;101008.84;;;4.36;89.27
44974;BME280;60981;50.720;11.342;2023-02-11T04:24:56;101010.25;;;4.47;89.17
44974;BME280;60981;50.720;11.342;2023-02-11T04:25:59;101006.97;;;4.49;88.70
44974;BME280;60981;50.720;11.342;2023-02-11T04:27:01;101006.63;;;4.42;88.95
44974;BME280;60981;50.720;11.342;2023-02-11T04:28:03;101010.13;;;4.44;89.26
44974;BME280;60981;50.720;11.342;2023-02-11T04:29:04;101001.59;;;4.43;89.22
44974;BME280;60981;50.720;11.342;2023-02-11T04:30:09;101005.22;;;4.48;88.91
44974;BME280;60981;50.720;11.342;2023-02-11T04:31:11;101004.34;;;4.48;88.82
44974;BME280;60981;50.720;11.342;2023-02-11T04:32:13;100994.09;;;4.46;88.87
44974;BME280;60981;50.720;11.342;2023-02-11T04:33:15;100994.09;;;4.46;88.85
44974;BME280;60981;50.720;11.342;2023-02-11T04:34:17;100989.94;;;4.48;88.49
44974;BME280;60981;50.720;11.342;2023-02-11T04:35:19;101004.84;;;4.57;88.03
44974;BME280;60981;50.720;11.342;2023-02-11T04:36:22;101002.09;;;4.54;87.76
44974;BME280;60981;50.720;11.342;2023-02-11T04:37:23;100998.69;;;4.53;87.91
44974;BME280;60981;50.720;11.342;2023-02-11T04:38:25;101004.50;;;4.51;88.18
44974;BME280;60981;50.720;11.342;2023-02-11T04:39:27;100990.94;;;4.52;87.95
44974;BME280;60981;50.720;11.342;2023-02-11T04:40:28;100987.59;;;4.53;87.97
44974;BME280;60981;50.720;11.342;2023-02-11T04:41:30;100984.44;;;4.57;87.80
44974;BME280;60981;50.720;11.342;2023-02-11T04:42:32;100990.94;;;4.52;88.14
44974;BME280;60981;50.720;11.342;2023-02-11T04:43:36;100992.94;;;4.58;87.61
44974;BME280;60981;50.720;11.342;2023-02-11T04:44:38;101003.97;;;4.57;87.48
44974;BME280;60981;50.720;11.342;2023-02-11T04:45:40;101009.69;;;4.52;87.46
44974;BME280;60981;50.720;11.342;2023-02-11T04:46:42;101006.03;;;4.47;88.19
44974;BME280;60981;50.720;11.342;2023-02-11T04:47:43;101005.97;;;4.46;88.25
44974;BME280;60981;50.720;11.342;2023-02-11T04:48:45;101008.50;;;4.46;88.10
44974;BME280;60981;50.720;11.342;2023-02-11T04:49:47;100999.59;;;4.38;88.43
44974;BME280;60981;50.720;11.342;2023-02-11T04:50:49;101007.34;;;4.39;88.30
44974;BME280;60981;50.720;11.342;2023-02-11T04:51:50;100990.13;;;4.35;88.53
44974;BME280;60981;50.720;11.342;2023-02-11T04:52:54;100991.06;;;4.37;88.69
44974;BME280;60981;50.720;11.342;2023-02-11T04:53:56;100984.69;;;4.45;88.33
44974;BME280;60981;50.720;11.342;2023-02-11T04:54:57;100988.09;;;4.46;88.20
44974;BME280;60981;50.720;11.342;2023-02-11T04:55:59;100986.91;;;4.56;87.95
44974;BME280;60981;50.720;11.342;2023-02-11T04:57:01;100981.16;;;4.60;87.69
44974;BME280;60981;50.720;11.342;2023-02-11T04:58:03;100980.63;;;4.67;87.25
44974;BME280;60981;50.720;11.342;2023-02-11T04:59:05;100987.88;;;4.75;86.54
44974;BME280;60981;50.720;11.342;2023-02-11T05:00:09;100996.69;;;4.82;86.25
44974;BME280;60981;50.720;11.342;2023-02-11T05:01:13;101003.09;;;4.74;85.84
44974;BME280;60981;50.720;11.342;2023-02-11T05:02:15;100991.50;;;4.63;86.58
44974;BME280;60981;50.720;11.342;2023-02-11T05:03:17;101010.59;;;4.71;86.42
44974;BME280;60981;50.720;11.342;2023-02-11T05:04:19;101007.47;;;4.76;86.09
44974;BME280;60981;50.720;11.342;2023-02-11T05:05:20;101015.41;;;4.82;85.92
44974;BME280;60981;50.720;11.342;2023-02-11T05:06:22;101018.19;;;4.87;85.86
44974;BME280;60981;50.720;11.342;2023-02-11T05:07:24;101023.41;;;4.89;85.40
44974;BME280;60981;50.720;11.342;2023-02-11T05:08:26;101024.03;;;4.85;85.52
44974;BME280;60981;50.720;11.342;2023-02-11T05:09:30;101023.16;;;4.84;85.88
44974;BME280;60981;50.720;11.342;2023-02-11T05:10:32;101027.81;;;4.75;86.39
44974;BME280;60981;50.720;11.342;2023-02-11T05:11:36;101033.28;;;4.82;86.31
44974;BME280;60981;50.720;11.342;2023-02-11T05:12:40;101038.72;;;4.89;86.17
44974;BME280;60981;50.720;11.342;2023-02-11T05:13:42;101037.66;;;4.85;85.87
44974;BME280;60981;50.720;11.342;2023-02-11T05:14:44;101039.72;;;4.92;85.75
44974;BME280;60981;50.720;11.342;2023-02-11T05:15:45;101039.00;;;4.95;85.61
44974;BME280;60981;50.720;11.342;2023-02-11T05:16:50;101034.56;;;4.91;85.59
44974;BME280;60981;50.720;11.342;2023-02-11T05:17:53;101035.56;;;4.94;85.47
44974;BME280;60981;50.720;11.342;2023-02-11T05:18:55;101027.19;;;4.97;85.42
44974;BME280;60981;50.720;11.342;2023-02-11T05:19:57;101027.56;;;5.04;85.20
44974;BME280;60981;50.720;11.342;2023-02-11T05:20:58;101025.16;;;5.07;85.26
44974;BME280;60981;50.720;11.342;2023-02-11T05:22:00;101030.34;;;5.09;84.90
44974;BME280;60981;50.720;11.342;2023-02-11T05:23:04;101022.09;;;5.15;84.89
44974;BME280;60981;50.720;11.342;2023-02-11T05:24:06;101024.78;;;5.18;84.48
44974;BME280;60981;50.720;11.342;2023-02-11T05:25:10;101024.94;;;5.21;84.38
44974;BME280;60981;50.720;11.342;2023-02-11T05:26:12;101024.78;;;5.18;84.12
44974;BME280;60981;50.720;11.342;2023-02-11T05:27:14;101031.22;;;5.09;84.57
44974;BME280;60981;50.720;11.342;2023-02-11T05:28:16;101025.50;;;5.15;84.65
44974;BME280;60981;50.720;11.342;2023-02-11T05:29:18;101025.66;;;5.18;84.54
44974;BME280;60981;50.720;11.342;2023-02-11T05:30:20;101028.38;;;5.21;84.38
44974;BME280;60981;50.720;11.342;2023-02-11T05:31:22;101023.28;;;5.21;84.41
44974;BME280;60981;50.720;11.342;2023-02-11T05:32:24;101024.16;;;5.22;84.12
44974;BME280;60981;50.720;11.342;2023-02-11T05:33:26;101023.09;;;5.18;84.40
44974;BME280;60981;50.720;11.342;2023-02-11T05:34:28;101031.41;;;5.14;84.56
44974;BME280;60981;50.720;11.342;2023-02-11T05:35:29;101025.44;;;5.13;84.65
44974;BME280;60981;50.720;11.342;2023-02-11T05:36:31;101030.47;;;5.12;84.81
44974;BME280;60981;50.720;11.342;2023-02-11T05:37:35;101035.59;;;5.12;84.81
44974;BME280;60981;50.720;11.342;2023-02-11T05:38:38;101037.31;;;5.13;84.61
44974;BME280;60981;50.720;11.342;2023-02-11T05:39:40;101023.97;;;5.19;84.87
44974;BME280;60981;50.720;11.342;2023-02-11T05:40:41;101032.50;;;5.19;84.74
44974;BME280;60981;50.720;11.342;2023-02-11T05:41:44;101041.13;;;5.21;84.73
44974;BME280;60981;50.720;11.342;2023-02-11T05:42:47;101038.66;;;5.05;85.03
44974;BME280;60981;50.720;11.342;2023-02-11T05:43:49;101043.81;;;5.06;85.65
44974;BME280;60981;50.720;11.342;2023-02-11T05:44:54;101043.38;;;4.97;86.22
44974;BME280;60981;50.720;11.342;2023-02-11T05:45:56;101050.81;;;5.10;86.33
44974;BME280;60981;50.720;11.342;2023-02-11T05:46:58;101051.03;;;5.15;86.00
44974;BME280;60981;50.720;11.342;2023-02-11T05:47:59;101043.75;;;5.23;85.46
44974;BME280;60981;50.720;11.342;2023-02-11T05:49:02;101054.31;;;5.30;85.14
44974;BME280;60981;50.720;11.342;2023-02-11T05:50:03;101055.41;;;5.35;84.58
44974;BME280;60981;50.720;11.342;2023-02-11T05:51:09;101053.66;;;5.34;84.42
44974;BME280;60981;50.720;11.342;2023-02-11T05:52:11;101051.63;;;5.27;84.90
44974;BME280;60981;50.720;11.342;2023-02-11T05:53:12;101050.31;;;5.35;84.43
44974;BME280;60981;50.720;11.342;2023-02-11T05:54:14;101051.34;;;5.39;84.42